Time;durP1;ratioP1;P1;durP2;ratioP2;P2;SDS_P1;SDS_P2;PMS_P1;PMS_P2;Temp;Humidity;BMP_temperature;BMP_pressure;BME280_temperature;BME280_humidity;BME280_pressure;Samples;Min_cycle;Max_cycle;Signal;HPM_P1;HPM_P2
2022/09/24 00:01:11;;;;;;;9.13;5.93;;;;;;;14.11;100.00;99791.56;5011285;28;20030;-68
2022/09/24 00:03:37;;;;;;;7.68;5.55;;;;;;;14.06;100.00;99800.75;5011313;28;20390;-68
2022/09/24 00:06:03;;;;;;;9.25;5.95;;;;;;;14.05;100.00;99797.22;5032004;28;20114;-68
2022/09/24 00:08:29;;;;;;;8.50;5.75;;;;;;;14.03;100.00;99806.25;5031256;28;20036;-68
2022/09/24 00:10:56;;;;;;;9.70;7.10;;;;;;;13.98;100.00;99801.16;5023498;28;20037;-68
2022/09/24 00:13:21;;;;;;;10.10;6.70;;;;;;;13.91;100.00;99790.81;5014961;28;20462;-68
2022/09/24 00:15:49;;;;;;;11.10;6.65;;;;;;;13.84;100.00;99789.38;5015320;28;20033;-68
2022/09/24 00:18:16;;;;;;;9.82;6.30;;;;;;;13.75;100.00;99779.16;5015082;28;20034;-68
2022/09/24 00:20:42;;;;;;;7.88;5.40;;;;;;;13.67;100.00;99782.22;5015784;28;20033;-68
2022/09/24 00:23:08;;;;;;;8.98;6.30;;;;;;;13.62;100.00;99778.91;5035105;28;20022;-68
2022/09/24 00:28:27;;;;;;;9.85;6.60;;;;;;;13.50;100.00;99778.59;5025633;28;20141;-68
2022/09/24 00:30:53;;;;;;;10.40;5.82;;;;;;;13.44;100.00;99793.16;5017293;28;20034;-68
2022/09/24 00:33:20;;;;;;;10.95;6.22;;;;;;;13.40;100.00;99780.00;5019730;28;20022;-68
2022/09/24 00:35:45;;;;;;;11.88;6.32;;;;;;;13.38;100.00;99771.22;5016346;28;20022;-68
2022/09/24 00:38:11;;;;;;;9.63;5.85;;;;;;;13.36;100.00;99775.75;5031780;28;20599;-68
2022/09/24 00:40:38;;;;;;;7.55;5.68;;;;;;;13.34;100.00;99772.28;5016979;28;20042;-68
2022/09/24 00:43:29;;;;;;;8.15;5.70;;;;;;;13.32;100.00;99775.03;5016241;28;20029;-67
2022/09/24 00:46:22;;;;;;;8.20;5.95;;;;;;;13.27;100.00;99774.38;5015815;28;20038;-68
2022/09/24 00:48:50;;;;;;;8.70;6.20;;;;;;;13.26;100.00;99763.75;5015869;28;20048;-68
2022/09/24 00:51:20;;;;;;;8.68;5.93;;;;;;;13.19;100.00;99748.00;5015970;28;20052;-68
2022/09/24 00:53:50;;;;;;;9.85;6.22;;;;;;;13.31;100.00;99762.59;4998723;28;20049;-67
2022/09/24 00:56:16;;;;;;;10.90;6.57;;;;;;;13.34;100.00;99764.25;5017249;28;20044;-68
2022/09/24 00:58:49;;;;;;;9.20;5.97;;;;;;;13.35;100.00;99753.50;5035123;28;20029;-68
2022/09/24 01:01:15;;;;;;;9.48;6.25;;;;;;;13.39;100.00;99759.56;5035203;28;20029;-67
2022/09/24 01:03:41;;;;;;;9.90;6.75;;;;;;;13.46;100.00;99763.69;5035476;28;20403;-67
2022/09/24 01:06:10;;;;;;;9.73;6.55;;;;;;;13.52;100.00;99756.25;5034081;28;20095;-68
2022/09/24 01:08:36;;;;;;;9.88;7.05;;;;;;;13.55;100.00;99737.38;5034094;28;20103;-68
2022/09/24 01:11:08;;;;;;;14.23;6.72;;;;;;;13.59;100.00;99738.09;5032995;28;20428;-68
2022/09/24 01:13:48;;;;;;;8.95;5.10;;;;;;;13.56;100.00;99735.59;5032463;28;20032;-68
2022/09/24 01:16:44;;;;;;;9.68;5.90;;;;;;;13.52;100.00;99726.84;5032299;28;20057;-68
2022/09/24 01:19:21;;;;;;;12.32;6.47;;;;;;;13.55;100.00;99728.47;5032493;28;20021;-68
2022/09/24 01:21:54;;;;;;;8.23;5.55;;;;;;;13.56;100.00;99736.44;5031847;28;20042;-68
2022/09/24 01:24:36;;;;;;;10.38;5.85;;;;;;;13.55;100.00;99733.81;5032264;28;20087;-67
2022/09/24 01:27:17;;;;;;;8.65;5.97;;;;;;;13.62;100.00;99724.56;5032461;28;20057;-68
2022/09/24 01:29:48;;;;;;;10.15;5.80;;;;;;;13.66;100.00;99726.13;5032542;28;20572;-67
2022/09/24 01:32:36;;;;;;;10.65;6.25;;;;;;;13.63;100.00;99720.94;5032332;28;20061;-68
2022/09/24 01:35:12;;;;;;;10.57;7.40;;;;;;;13.62;100.00;99727.25;5031926;28;20029;-68
2022/09/24 01:37:41;;;;;;;11.02;6.00;;;;;;;13.67;100.00;99725.22;5032011;28;20029;-68
2022/09/24 01:40:08;;;;;;;8.45;6.50;;;;;;;13.59;100.00;99708.69;5030800;28;20116;-67
2022/09/24 01:42:35;;;;;;;10.82;7.18;;;;;;;13.66;100.00;99721.66;5031137;28;20033;-68
2022/09/24 01:45:01;;;;;;;7.72;5.95;;;;;;;13.66;100.00;99716.31;5030721;28;20550;-69
2022/09/24 01:47:36;;;;;;;8.50;5.93;;;;;;;13.64;100.00;99717.34;5030538;28;20060;-69
2022/09/24 01:50:02;;;;;;;10.27;6.35;;;;;;;13.61;100.00;99717.47;5030351;28;20076;-69
2022/09/24 01:52:34;;;;;;;11.32;6.78;;;;;;;13.60;100.00;99716.63;5030144;28;20408;-69
2022/09/24 01:55:02;;;;;;;14.57;7.10;;;;;;;13.59;100.00;99716.72;5030811;28;20048;-68
2022/09/24 01:57:37;;;;;;;11.10;6.30;;;;;;;13.67;100.00;99727.88;5020276;28;20032;-69
2022/09/24 02:00:15;;;;;;;11.80;7.10;;;;;;;13.72;100.00;99725.84;5011625;28;20026;-69
2022/09/24 02:02:53;;;;;;;10.43;6.43;;;;;;;13.75;100.00;99715.00;5011399;28;20032;-68
2022/09/24 02:05:37;;;;;;;12.77;7.75;;;;;;;13.82;100.00;99708.41;5010566;28;20076;-69
2022/09/24 02:08:05;;;;;;;10.38;6.95;;;;;;;13.96;100.00;99709.44;5010330;28;20068;-68
2022/09/24 02:10:39;;;;;;;11.88;7.65;;;;;;;14.04;100.00;99714.38;5018424;28;20037;-68
2022/09/24 02:13:12;;;;;;;13.25;8.07;;;;;;;14.03;100.00;99710.00;5010425;28;20037;-68
2022/09/24 02:15:40;;;;;;;10.55;7.25;;;;;;;14.11;100.00;99715.81;5009851;28;20661;-68
2022/09/24 02:18:10;;;;;;;13.63;8.80;;;;;;;14.10;100.00;99698.03;5010172;28;20113;-67
2022/09/24 02:20:39;;;;;;;13.43;8.52;;;;;;;14.08;100.00;99713.28;5022439;28;20477;-68
2022/09/24 02:23:07;;;;;;;11.95;7.63;;;;;;;14.11;100.00;99714.00;5011052;28;20028;-69
2022/09/24 02:25:49;;;;;;;11.70;6.68;;;;;;;14.12;100.00;99717.53;5010325;28;20435;-67
2022/09/24 02:28:17;;;;;;;11.88;8.05;;;;;;;14.09;100.00;99710.53;5010565;28;20030;-69
2022/09/24 02:30:49;;;;;;;13.25;7.82;;;;;;;14.09;100.00;99715.88;5010552;28;20481;-68
2022/09/24 02:36:00;;;;;;;10.52;7.43;;;;;;;14.15;100.00;99710.22;5027968;28;20036;-67
2022/09/24 02:38:25;;;;;;;11.55;7.75;;;;;;;14.16;100.00;99705.72;5030812;28;20029;-68
2022/09/24 02:40:52;;;;;;;10.77;7.13;;;;;;;14.12;100.00;99698.78;5020982;28;20033;-68
2022/09/24 02:43:17;;;;;;;11.05;6.82;;;;;;;14.13;100.00;99695.19;5010314;28;20468;-67
2022/09/24 02:45:43;;;;;;;11.52;7.32;;;;;;;14.24;100.00;99698.16;5012860;28;20018;-69
2022/09/24 02:48:08;;;;;;;13.95;8.02;;;;;;;14.26;100.00;99701.66;5010476;28;20045;-68
2022/09/24 02:50:34;;;;;;;11.68;7.53;;;;;;;14.23;100.00;99693.78;5010292;28;20474;-68
2022/09/24 02:52:59;;;;;;;12.23;7.97;;;;;;;14.20;100.00;99691.28;5010647;28;20079;-67
2022/09/24 02:55:26;;;;;;;10.65;6.80;;;;;;;14.24;100.00;99699.03;5010200;28;20036;-68
2022/09/24 02:57:51;;;;;;;10.75;6.85;;;;;;;14.29;100.00;99696.16;5024317;28;20025;-68
2022/09/24 03:00:19;;;;;;;10.52;7.15;;;;;;;14.19;100.00;99702.91;5029853;28;20782;-67
2022/09/24 03:02:46;;;;;;;15.10;7.72;;;;;;;14.18;100.00;99703.84;5029646;28;20091;-68
2022/09/24 03:05:12;;;;;;;14.25;7.60;;;;;;;14.18;100.00;99698.50;5029747;28;20120;-68
2022/09/24 03:07:38;;;;;;;11.20;7.63;;;;;;;14.20;100.00;99696.63;5030013;28;20041;-68
2022/09/24 03:10:03;;;;;;;12.20;7.28;;;;;;;14.22;100.00;99695.56;5027232;28;20021;-68
2022/09/24 03:12:29;;;;;;;11.20;8.13;;;;;;;14.23;100.00;99694.63;5009996;28;20029;-69
2022/09/24 03:14:54;;;;;;;14.30;7.68;;;;;;;14.24;100.00;99693.69;5010102;28;20026;-69
2022/09/24 03:17:19;;;;;;;13.88;7.97;;;;;;;14.17;100.00;99676.22;5009914;28;20137;-69
2022/09/24 03:19:45;;;;;;;11.18;7.70;;;;;;;14.22;100.00;99684.88;5009934;28;20037;-69
2022/09/24 03:22:10;;;;;;;11.95;8.52;;;;;;;14.25;100.00;99691.91;5009871;28;20030;-68
2022/09/24 03:24:36;;;;;;;12.43;8.32;;;;;;;14.24;100.00;99703.53;5009619;28;20068;-68
2022/09/24 03:27:01;;;;;;;12.80;8.30;;;;;;;14.25;100.00;99699.91;5010017;28;20549;-68
2022/09/24 03:32:10;;;;;;;;;;;;;;;14.30;100.00;99689.84;5010499;28;20064;-69
2022/09/24 03:34:35;;;;;;;13.18;8.38;;;;;;;14.32;100.00;99690.63;5010149;28;19960;-69
2022/09/24 03:37:01;;;;;;;15.02;8.90;;;;;;;14.32;100.00;99686.16;5009876;28;20037;-68
2022/09/24 03:39:26;;;;;;;12.25;9.10;;;;;;;14.32;100.00;99679.94;5009721;28;20513;-68
2022/09/24 03:41:52;;;;;;;11.50;8.27;;;;;;;14.30;100.00;99679.13;5009570;28;20025;-68
2022/09/24 03:44:17;;;;;;;11.02;8.13;;;;;;;14.31;100.00;99683.56;5009689;28;20160;-68
2022/09/24 03:46:42;;;;;;;13.50;8.20;;;;;;;14.31;100.00;99673.75;5013110;28;20025;-68
2022/09/24 03:49:08;;;;;;;12.23;8.25;;;;;;;14.31;100.00;99665.72;5013633;28;20034;-68
2022/09/24 03:51:33;;;;;;;14.30;8.25;;;;;;;14.29;100.00;99656.03;5013277;28;20391;-68
2022/09/24 03:54:00;;;;;;;11.40;7.95;;;;;;;14.28;100.00;99667.69;5013733;28;20445;-68
2022/09/24 03:56:25;;;;;;;14.75;8.18;;;;;;;14.25;100.00;99673.16;5013137;28;20030;-68
2022/09/24 03:58:50;;;;;;;13.57;9.40;;;;;;;14.24;100.00;99671.41;5013441;28;20038;-68
2022/09/24 04:01:19;;;;;;;14.43;8.38;;;;;;;14.21;100.00;99667.09;5013168;28;20056;-67
2022/09/24 04:03:46;;;;;;;12.77;8.00;;;;;;;14.18;100.00;99661.06;5013292;28;20030;-68
2022/09/24 04:06:11;;;;;;;13.10;8.40;;;;;;;14.10;100.00;99661.44;5013215;28;20038;-67
2022/09/24 04:08:37;;;;;;;10.18;7.47;;;;;;;14.02;100.00;99660.13;5013312;28;20034;-67
2022/09/24 04:11:02;;;;;;;9.85;7.65;;;;;;;13.91;100.00;99667.81;5012648;28;20040;-67
2022/09/24 04:13:28;;;;;;;11.15;8.00;;;;;;;13.78;100.00;99656.91;5012613;28;20140;-68
2022/09/24 04:15:53;;;;;;;13.27;7.13;;;;;;;13.71;100.00;99655.47;5021173;28;20096;-67
2022/09/24 04:18:20;;;;;;;12.60;8.27;;;;;;;13.61;100.00;99664.03;5034885;28;20036;-67
2022/09/24 04:20:45;;;;;;;11.50;7.43;;;;;;;13.51;100.00;99662.78;5032046;28;20073;-67
2022/09/24 04:23:11;;;;;;;12.13;7.38;;;;;;;13.45;100.00;99660.41;5032842;28;20029;-67
2022/09/24 04:25:39;;;;;;;10.55;7.45;;;;;;;13.38;100.00;99659.84;5032301;28;20033;-68
2022/09/24 04:28:07;;;;;;;11.07;7.35;;;;;;;13.37;100.00;99662.59;5020670;28;20544;-68
2022/09/24 04:30:33;;;;;;;11.75;8.38;;;;;;;13.34;100.00;99665.44;5032518;28;20021;-68
2022/09/24 04:33:00;;;;;;;12.10;7.65;;;;;;;13.32;100.00;99668.19;5032672;28;20132;-68
2022/09/24 04:35:26;;;;;;;13.00;7.97;;;;;;;13.31;100.00;99660.25;5032583;28;20381;-68
2022/09/24 04:37:52;;;;;;;13.00;7.97;;;;;;;13.31;100.00;99660.25;5032433;28;20362;-68
2022/09/24 04:40:17;;;;;;;11.23;7.20;;;;;;;13.29;100.00;99659.44;5027896;28;20081;-68
2022/09/24 04:42:45;;;;;;;13.43;7.78;;;;;;;13.29;100.00;99667.47;5012762;28;20040;-69
2022/09/24 04:45:12;;;;;;;11.07;7.25;;;;;;;13.27;100.00;99663.97;5014995;28;20033;-68
2022/09/24 04:47:39;;;;;;;12.13;8.10;;;;;;;13.30;100.00;99669.16;5012700;28;20485;-68
2022/09/24 04:50:06;;;;;;;13.07;8.10;;;;;;;13.31;100.00;99670.91;5011960;28;20132;-68
2022/09/24 04:52:32;;;;;;;10.82;7.38;;;;;;;13.29;100.00;99662.13;5012252;28;20111;-69
2022/09/24 04:55:00;;;;;;;11.93;8.25;;;;;;;13.31;100.00;99666.44;5012370;28;20051;-68
2022/09/24 04:57:28;;;;;;;11.75;8.38;;;;;;;13.33;100.00;99671.72;5021711;28;20132;-68
2022/09/24 04:59:54;;;;;;;10.95;7.30;;;;;;;13.30;100.00;99653.16;5032061;28;20052;-68
2022/09/24 05:02:19;;;;;;;12.60;8.07;;;;;;;13.28;100.00;99655.06;5031781;28;20026;-67
2022/09/24 05:04:45;;;;;;;11.05;8.45;;;;;;;13.27;100.00;99653.31;5031890;28;20048;-67
2022/09/24 05:07:11;;;;;;;9.20;7.05;;;;;;;13.24;100.00;99655.19;5032110;28;20775;-67
2022/09/24 05:09:37;;;;;;;12.55;7.82;;;;;;;13.27;100.00;99650.63;5031816;28;20481;-67
2022/09/24 05:12:03;;;;;;;10.85;7.63;;;;;;;13.28;100.00;99655.91;5012982;28;20112;-67
2022/09/24 05:14:29;;;;;;;14.50;8.00;;;;;;;13.29;100.00;99654.97;5011828;28;20029;-67
2022/09/24 05:16:55;;;;;;;10.82;7.75;;;;;;;13.26;100.00;99641.78;5011709;28;20104;-66
2022/09/24 05:19:20;;;;;;;12.15;8.27;;;;;;;13.39;100.00;99652.72;5011842;28;20029;-67
2022/09/24 05:21:45;;;;;;;11.60;8.27;;;;;;;13.41;100.00;99650.84;5012082;28;20434;-67
2022/09/24 05:24:12;;;;;;;10.68;7.25;;;;;;;13.48;100.00;99660.25;5011142;28;20378;-67
2022/09/24 05:29:21;;;;;;;;;;;;;;;13.57;100.00;99657.13;5011560;28;20049;-67
2022/09/24 05:31:46;;;;;;;11.60;7.18;;;;;;;13.62;100.00;99655.09;5011068;28;20021;-67
2022/09/24 05:34:13;;;;;;;11.50;7.68;;;;;;;13.68;100.00;99661.00;5011000;28;20469;-66
2022/09/24 05:36:39;;;;;;;13.63;7.28;;;;;;;13.70;100.00;99660.91;5011099;28;20033;-67
2022/09/24 05:39:05;;;;;;;15.80;8.88;;;;;;;13.73;100.00;99658.94;5011425;28;20071;-66
2022/09/24 05:41:31;;;;;;;12.02;7.90;;;;;;;13.74;100.00;99657.16;5011579;28;20057;-67
2022/09/24 05:43:57;;;;;;;12.02;8.43;;;;;;;13.79;100.00;99663.97;5011685;28;20085;-67
2022/09/24 05:46:22;;;;;;;11.10;8.38;;;;;;;13.83;100.00;99670.91;5011067;28;20056;-66
2022/09/24 05:48:48;;;;;;;11.75;8.48;;;;;;;13.86;100.00;99675.22;5011266;28;20033;-67
2022/09/24 05:51:13;;;;;;;12.15;8.18;;;;;;;13.86;100.00;99683.22;5010820;28;20482;-66
2022/09/24 05:53:39;;;;;;;11.35;7.93;;;;;;;13.89;100.00;99677.72;5011206;28;20033;-67
2022/09/24 05:56:05;;;;;;;12.77;7.88;;;;;;;13.89;100.00;99675.06;5011397;28;20158;-67
2022/09/24 05:58:30;;;;;;;13.52;8.38;;;;;;;13.93;100.00;99673.97;5011019;28;20030;-66
2022/09/24 06:00:59;;;;;;;10.45;7.20;;;;;;;13.98;100.00;99674.59;5010983;28;20026;-67
2022/09/24 06:03:24;;;;;;;14.73;8.68;;;;;;;14.03;100.00;99681.44;5011027;28;20075;-67
2022/09/24 06:05:55;;;;;;;12.52;8.05;;;;;;;14.04;100.00;99669.78;5010682;28;20035;-67
2022/09/24 06:08:20;;;;;;;12.38;8.18;;;;;;;14.11;100.00;99676.56;5030846;28;20064;-67
2022/09/24 06:10:47;;;;;;;11.73;8.25;;;;;;;14.18;100.00;99677.09;5021774;28;20073;-67
2022/09/24 06:13:16;;;;;;;14.82;7.93;;;;;;;14.22;100.00;99689.34;5009776;28;20034;-67
2022/09/24 06:15:42;;;;;;;13.02;8.32;;;;;;;14.24;100.00;99683.00;5010041;28;20402;-67
2022/09/24 06:18:11;;;;;;;11.02;7.75;;;;;;;14.28;100.00;99689.09;5010088;28;20072;-68
2022/09/24 06:20:37;;;;;;;13.25;8.43;;;;;;;14.30;100.00;99687.16;5011326;28;20385;-66
2022/09/24 06:23:03;;;;;;;13.52;8.07;;;;;;;14.35;100.00;99690.47;5043008;28;20043;-67
2022/09/24 06:25:29;;;;;;;13.35;8.55;;;;;;;14.37;100.00;99688.59;5049754;28;20029;-67
2022/09/24 06:28:03;;;;;;;13.48;8.45;;;;;;;14.41;100.00;99677.63;5050172;28;20112;-67
2022/09/24 06:30:30;;;;;;;;;;;;;;;14.46;100.00;99688.94;5050742;28;20388;-68
2022/09/24 06:33:01;;;;;;;12.93;7.68;;;;;;;14.55;100.00;99692.94;5043722;28;19917;-66
2022/09/24 06:35:27;;;;;;;10.02;7.03;;;;;;;14.57;100.00;99680.34;5030920;28;20044;-67
2022/09/24 06:37:52;;;;;;;13.57;8.23;;;;;;;14.61;100.00;99679.25;5030163;28;20053;-66
2022/09/24 06:40:18;;;;;;;13.38;8.07;;;;;;;14.58;100.00;99681.22;5025756;28;20413;-67
2022/09/24 06:42:43;;;;;;;11.35;7.60;;;;;;;14.59;100.00;99677.59;5012663;28;20022;-67
2022/09/24 06:45:09;;;;;;;12.05;8.63;;;;;;;14.61;100.00;99681.94;5010380;28;20030;-68
2022/09/24 06:47:34;;;;;;;10.65;7.68;;;;;;;14.63;100.00;99690.72;5010483;28;20029;-67
2022/09/24 06:49:59;;;;;;;11.13;8.13;;;;;;;14.68;100.00;99685.97;5010252;28;20109;-67
2022/09/24 06:52:28;;;;;;;14.20;9.38;;;;;;;14.73;100.00;99686.59;5010121;28;20026;-67
2022/09/24 06:54:55;;;;;;;14.13;8.82;;;;;;;14.79;100.00;99690.75;5010143;28;20485;-67
2022/09/24 06:57:20;;;;;;;13.70;8.50;;;;;;;14.88;100.00;99701.81;5019945;28;20044;-67
2022/09/24 06:59:46;;;;;;;12.02;8.88;;;;;;;14.93;100.00;99699.75;5029974;28;20037;-67
2022/09/24 07:02:12;;;;;;;12.35;7.90;;;;;;;14.98;100.00;99697.69;5029763;28;20100;-67
2022/09/24 07:04:37;;;;;;;13.88;8.20;;;;;;;15.03;100.00;99698.31;5029918;28;20033;-67
2022/09/24 07:09:48;;;;;;;11.25;7.90;;;;;;;15.08;100.00;99698.91;5029535;28;20048;-67
2022/09/24 07:12:13;;;;;;;15.00;7.97;;;;;;;15.10;100.00;99691.66;5009930;28;20034;-67
2022/09/24 07:14:39;;;;;;;11.60;7.80;;;;;;;15.20;100.00;99698.25;5010133;28;20568;-66
2022/09/24 07:17:04;;;;;;;12.02;7.95;;;;;;;15.21;100.00;99709.81;5009952;28;20036;-67
2022/09/24 07:19:29;;;;;;;10.93;7.97;;;;;;;15.26;100.00;99713.09;5009460;28;20017;-68
2022/09/24 07:21:55;;;;;;;11.65;8.23;;;;;;;15.28;100.00;99717.44;5009428;28;20134;-67
2022/09/24 07:24:20;;;;;;;13.10;8.38;;;;;;;15.30;100.00;99710.16;5009470;28;20343;-67
2022/09/24 07:26:46;;;;;;;12.07;8.00;;;;;;;15.32;100.00;99713.59;5009583;28;20024;-67
2022/09/24 07:29:11;;;;;;;11.02;7.82;;;;;;;15.41;100.00;99718.50;5009605;28;20033;-67
2022/09/24 07:31:37;;;;;;;10.77;7.70;;;;;;;15.39;100.00;99717.72;5009332;28;20026;-67
2022/09/24 07:34:05;;;;;;;12.07;7.72;;;;;;;15.36;100.00;99714.31;5009283;28;20030;-67
2022/09/24 07:36:30;;;;;;;12.45;7.75;;;;;;;15.35;100.00;99708.06;5009444;28;20022;-67
2022/09/24 07:38:57;;;;;;;12.25;7.53;;;;;;;15.31;100.00;99701.16;5009783;28;20041;-67
2022/09/24 07:41:22;;;;;;;14.35;8.45;;;;;;;15.46;100.00;99707.50;5009579;28;20021;-67
2022/09/24 07:43:48;;;;;;;14.45;8.90;;;;;;;15.52;100.00;99699.97;5009524;28;20032;-68
2022/09/24 07:46:13;;;;;;;11.80;8.50;;;;;;;15.53;100.00;99690.97;5009669;28;20033;-67
2022/09/24 07:48:38;;;;;;;14.25;7.35;;;;;;;15.60;100.00;99695.03;5009563;28;20129;-67
2022/09/24 07:51:09;;;;;;;10.63;7.90;;;;;;;15.61;100.00;99694.09;5009404;28;20057;-67
2022/09/24 07:53:34;;;;;;;11.38;8.40;;;;;;;15.75;100.00;99701.31;5009400;28;20025;-67
2022/09/24 07:56:00;;;;;;;12.35;8.70;;;;;;;15.83;100.00;99710.63;5009671;28;20018;-67
2022/09/24 07:58:25;;;;;;;13.38;8.65;;;;;;;15.88;100.00;99713.03;5009278;28;20037;-67
2022/09/24 08:00:51;;;;;;;14.38;10.25;;;;;;;15.93;100.00;99727.03;5009411;28;20121;-67
2022/09/24 08:03:16;;;;;;;14.80;8.77;;;;;;;16.06;100.00;99729.88;5023371;28;20069;-67
2022/09/24 08:05:44;;;;;;;15.68;9.20;;;;;;;16.08;100.00;99728.81;5029027;28;20083;-66
2022/09/24 08:08:09;;;;;;;13.80;8.57;;;;;;;16.08;100.00;99730.66;5029150;28;20026;-67
2022/09/24 08:10:35;;;;;;;12.55;8.20;;;;;;;16.10;100.00;99734.97;5022479;28;20033;-66
2022/09/24 08:13:01;;;;;;;14.13;9.18;;;;;;;16.07;100.00;99729.78;5012164;28;20026;-67
2022/09/24 08:15:26;;;;;;;12.80;8.20;;;;;;;16.13;100.00;99740.16;5014591;28;20021;-67
2022/09/24 08:17:52;;;;;;;14.20;8.65;;;;;;;16.16;100.00;99739.97;5029669;28;20025;-67
2022/09/24 08:20:17;;;;;;;13.43;8.07;;;;;;;16.13;100.00;99729.41;5028925;28;20033;-66
2022/09/24 08:22:43;;;;;;;12.80;8.18;;;;;;;16.22;100.00;99730.69;5029247;28;20075;-67
2022/09/24 08:25:08;;;;;;;12.20;7.85;;;;;;;16.32;100.00;99734.56;5029037;28;20021;-66
2022/09/24 08:27:35;;;;;;;14.10;9.02;;;;;;;16.38;100.00;99740.41;5029014;28;20025;-67
2022/09/24 08:30:02;;;;;;;13.23;9.00;;;;;;;16.44;100.00;99739.19;5029086;28;20408;-67
2022/09/24 08:32:30;;;;;;;15.38;8.88;;;;;;;16.52;100.00;99747.69;5022721;28;20061;-66
2022/09/24 08:34:55;;;;;;;14.38;8.32;;;;;;;16.62;100.00;99741.63;5013007;28;20029;-68
2022/09/24 08:37:21;;;;;;;12.80;8.30;;;;;;;16.70;100.00;99733.13;5012676;28;20073;-68
2022/09/24 08:39:46;;;;;;;9.98;7.03;;;;;;;16.82;100.00;99729.66;5012521;28;20025;-66
2022/09/24 08:42:33;;;;;;;13.55;8.10;;;;;;;16.99;100.00;99734.84;5034942;28;20022;-67
2022/09/24 08:47:50;;;;;;;12.70;8.52;;;;;;;17.30;100.00;99737.28;5012743;28;20080;-67
2022/09/24 08:50:18;;;;;;;14.23;8.68;;;;;;;17.46;99.24;99738.06;5012224;28;20069;-67
2022/09/24 08:52:57;;;;;;;10.85;7.20;;;;;;;17.57;97.07;99735.56;5012217;28;20462;-68
2022/09/24 08:55:44;;;;;;;11.10;6.90;;;;;;;17.72;96.38;99739.06;5012125;28;20021;-67
2022/09/24 08:58:16;;;;;;;9.88;6.78;;;;;;;17.82;95.64;99730.28;5028759;28;20029;-67
2022/09/24 09:01:14;;;;;;;9.90;6.18;;;;;;;17.91;95.54;99724.28;5031926;28;20045;-67
2022/09/24 09:04:08;;;;;;;8.38;5.13;;;;;;;18.02;94.55;99727.09;5031099;28;20029;-67
2022/09/24 09:06:48;;;;;;;11.37;5.47;;;;;;;18.13;93.82;99732.66;5031470;28;20030;-67
2022/09/24 09:09:22;;;;;;;7.82;5.40;;;;;;;18.21;94.03;99732.97;5031279;28;20347;-68
2022/09/24 09:11:57;;;;;;;9.07;5.88;;;;;;;18.32;93.92;99730.41;5014986;28;20064;-67
2022/09/24 09:14:38;;;;;;;7.50;5.25;;;;;;;18.29;92.77;99738.69;5011673;28;20026;-67
2022/09/24 09:17:15;;;;;;;8.10;5.45;;;;;;;18.23;93.66;99728.34;5012078;28;20025;-68
2022/09/24 09:19:45;;;;;;;8.30;5.65;;;;;;;18.16;93.30;99729.72;5011771;28;20735;-66
2022/09/24 09:22:16;;;;;;;11.32;5.50;;;;;;;18.13;94.08;99729.94;5011685;28;20393;-67
2022/09/24 09:24:48;;;;;;;6.95;4.93;;;;;;;18.12;94.38;99738.97;5011722;28;20038;-67
2022/09/24 09:27:15;;;;;;;9.48;4.22;;;;;;;18.12;94.82;99738.13;5011470;28;20030;-68
2022/09/24 09:29:47;;;;;;;8.45;3.65;;;;;;;18.09;96.09;99738.31;5011659;28;20026;-67
2022/09/24 09:32:30;;;;;;;6.60;3.70;;;;;;;18.10;97.67;99743.59;5011473;28;20030;-67
2022/09/24 09:35:05;;;;;;;5.47;3.22;;;;;;;18.21;98.62;99740.19;5011665;28;20371;-68
2022/09/24 09:37:39;;;;;;;7.20;3.17;;;;;;;18.37;99.07;99740.84;5011385;28;20029;-68
2022/09/24 09:40:15;;;;;;;5.22;3.17;;;;;;;18.54;99.16;99745.13;5011319;28;20032;-68
2022/09/24 09:42:43;;;;;;;6.97;3.15;;;;;;;18.74;98.85;99741.91;5010437;28;20323;-67
2022/09/24 09:45:34;;;;;;;7.60;3.50;;;;;;;18.88;98.50;99739.13;5010889;28;20080;-67
2022/09/24 09:48:03;;;;;;;7.22;4.30;;;;;;;19.04;98.03;99737.91;5010384;28;20032;-67
2022/09/24 09:50:36;;;;;;;6.75;4.60;;;;;;;19.03;97.46;99732.59;5010190;28;20064;-68
2022/09/24 09:53:04;;;;;;;6.20;4.07;;;;;;;19.24;96.88;99742.72;5010484;28;20392;-67
2022/09/24 09:55:34;;;;;;;6.90;3.47;;;;;;;19.29;98.04;99739.75;5010780;28;20030;-68
2022/09/24 09:58:17;;;;;;;7.50;3.30;;;;;;;19.40;96.17;99745.22;5010888;28;20034;-68
2022/09/24 10:00:48;;;;;;;5.53;2.92;;;;;;;19.88;96.17;99736.19;5011127;28;20113;-68
2022/09/24 10:03:22;;;;;;;7.93;3.20;;;;;;;20.43;92.71;99739.13;5010717;28;20033;-68
2022/09/24 10:05:54;;;;;;;5.35;2.88;;;;;;;20.87;88.76;99723.00;5029870;28;20148;-68
2022/09/24 10:08:21;;;;;;;4.82;2.60;;;;;;;21.18;84.80;99742.22;5030080;28;20044;-68
2022/09/24 10:10:55;;;;;;;4.13;2.45;;;;;;;21.27;83.36;99741.50;5021134;28;20033;-67
2022/09/24 10:13:21;;;;;;;5.95;2.88;;;;;;;21.29;83.35;99743.09;5020943;28;20040;-67
2022/09/24 10:15:55;;;;;;;5.03;2.35;;;;;;;21.31;81.98;99741.13;5029919;28;20092;-67
2022/09/24 10:18:44;;;;;;;4.03;2.42;;;;;;;21.36;81.93;99744.31;5030446;28;20033;-70
2022/09/24 10:21:13;;;;;;;4.57;2.40;;;;;;;21.25;81.51;99730.78;5030260;28;20025;-69
2022/09/24 10:23:41;;;;;;;4.40;2.35;;;;;;;21.27;81.12;99722.56;5030534;28;20033;-70
2022/09/24 10:26:08;;;;;;;5.35;2.90;;;;;;;21.35;80.74;99718.22;5032864;28;20537;-70
2022/09/24 10:31:30;;;;;;;6.85;2.60;;;;;;;21.43;77.07;99726.59;5030539;28;20149;-69
2022/09/24 10:33:59;;;;;;;3.00;2.15;;;;;;;21.37;79.15;99727.09;5030221;28;20129;-69
2022/09/24 10:36:27;;;;;;;4.40;2.33;;;;;;;21.47;79.68;99727.19;5032777;28;20048;-69
2022/09/24 10:39:11;;;;;;;6.85;1.92;;;;;;;21.47;80.05;99719.94;5029719;28;20025;-69
2022/09/24 10:41:36;;;;;;;4.32;2.35;;;;;;;21.58;79.36;99721.78;5016864;28;20018;-69
2022/09/24 10:44:10;;;;;;;4.35;2.40;;;;;;;21.61;79.56;99719.69;5011920;28;20026;-69
2022/09/24 10:47:17;;;;;;;5.75;2.40;;;;;;;21.68;79.72;99722.75;5009412;28;20036;-69
2022/09/24 10:50:25;;;;;;;6.93;3.45;;;;;;;21.64;79.10;99721.28;5008321;28;20410;-69
2022/09/24 10:52:59;;;;;;;3.65;1.88;;;;;;;21.44;79.27;99712.09;5009934;28;20030;-68
2022/09/24 10:55:24;;;;;;;4.28;2.13;;;;;;;21.31;80.39;99724.91;5009381;28;20036;-69
2022/09/24 10:58:24;;;;;;;4.60;2.00;;;;;;;21.01;79.98;99718.38;5024230;28;20041;-69
2022/09/24 11:01:25;;;;;;;3.30;1.85;;;;;;;20.76;81.20;99712.19;5029563;28;20116;-69
2022/09/24 11:04:18;;;;;;;3.67;2.20;;;;;;;20.67;83.26;99712.06;5029481;28;20030;-68
2022/09/24 11:07:21;;;;;;;4.05;2.03;;;;;;;20.50;83.75;99705.25;5028892;28;20108;-70
2022/09/24 11:09:56;;;;;;;4.10;2.60;;;;;;;20.54;84.70;99714.84;5028921;28;20033;-69
2022/09/24 11:12:37;;;;;;;5.00;3.03;;;;;;;20.63;85.44;99705.16;5009582;28;20132;-69
2022/09/24 11:15:19;;;;;;;5.97;2.95;;;;;;;20.72;85.19;99699.88;5009625;28;20021;-70
2022/09/24 11:18:17;;;;;;;6.55;3.75;;;;;;;20.82;83.89;99703.56;5010015;28;20040;-69
2022/09/24 11:21:08;;;;;;;4.38;2.38;;;;;;;21.32;84.05;99702.25;5009700;28;20034;-69
2022/09/24 11:24:04;;;;;;;4.75;2.58;;;;;;;21.92;78.98;99697.22;4972659;28;20108;-70
2022/09/24 11:27:04;;;;;;;5.38;2.47;;;;;;;22.75;73.21;99700.84;4972130;28;20128;-72
2022/09/24 11:29:35;;;;;;;4.05;1.92;;;;;;;22.38;71.18;99702.31;4970079;28;20128;-69
2022/09/24 11:32:16;;;;;;;5.32;2.50;;;;;;;21.72;73.57;99706.13;5009776;28;20436;-69
2022/09/24 11:34:54;;;;;;;3.33;2.20;;;;;;;21.31;76.19;99695.13;5009646;28;20044;-67
2022/09/24 11:37:47;;;;;;;5.18;2.22;;;;;;;21.25;77.34;99695.59;5009776;28;20033;-70
2022/09/24 11:40:31;;;;;;;3.97;2.20;;;;;;;21.17;76.78;99700.78;5009673;28;20022;-70
2022/09/24 11:43:26;;;;;;;4.45;2.38;;;;;;;21.32;77.97;99693.25;5009763;28;20104;-69
2022/09/24 11:45:58;;;;;;;4.68;2.47;;;;;;;21.43;76.70;99695.97;5009767;28;20285;-70
2022/09/24 11:48:39;;;;;;;5.13;2.40;;;;;;;21.46;76.53;99690.31;5009784;28;20041;-69
2022/09/24 11:51:40;;;;;;;4.75;2.40;;;;;;;21.53;76.64;99686.13;5009709;28;20077;-69
2022/09/24 11:54:09;;;;;;;6.07;2.92;;;;;;;21.76;75.50;99683.22;5009494;28;20026;-69
2022/09/24 11:56:42;;;;;;;5.15;2.45;;;;;;;21.87;74.26;99679.63;5009261;28;20477;-70